Time;durP1;ratioP1;P1;durP2;ratioP2;P2;SDS_P1;SDS_P2;PMS_P1;PMS_P2;Temp;Humidity;BMP_temperature;BMP_pressure;BME280_temperature;BME280_humidity;BME280_pressure;Samples;Min_cycle;Max_cycle;Signal;HPM_P1;HPM_P2
2023/08/22 00:01:30;;;;;;;8.82;7.93;;;;;;;23.99;76.54;94973.50;5109372;28;20555;-44
2023/08/22 00:03:57;;;;;;;9.82;8.57;;;;;;;23.95;76.96;94980.97;5109949;28;20221;-43
2023/08/22 00:06:24;;;;;;;12.18;9.07;;;;;;;23.94;76.98;94986.44;5109577;28;20231;-43
2023/08/22 00:08:51;;;;;;;10.73;8.48;;;;;;;23.93;77.18;94984.84;5109958;28;20228;-43
2023/08/22 00:11:18;;;;;;;10.43;9.30;;;;;;;23.89;76.96;94976.63;5110453;28;20222;-44
2023/08/22 00:13:45;;;;;;;9.77;8.65;;;;;;;23.87;77.00;94978.63;5111204;28;20197;-44
2023/08/22 00:16:12;;;;;;;10.38;8.63;;;;;;;23.92;76.82;94985.81;5109809;28;20591;-43
2023/08/22 00:18:40;;;;;;;12.45;8.95;;;;;;;23.93;76.32;94987.44;5109973;28;20276;-43
2023/08/22 00:21:07;;;;;;;14.68;9.13;;;;;;;23.92;76.45;94986.66;5109850;28;20211;-42
2023/08/22 00:23:34;;;;;;;10.38;9.25;;;;;;;23.91;76.14;94976.38;5109673;28;20185;-43
2023/08/22 00:26:00;;;;;;;11.52;8.60;;;;;;;23.92;76.00;94981.41;5109822;28;20185;-42
2023/08/22 00:28:27;;;;;;;10.75;8.90;;;;;;;23.92;75.89;94978.81;5109475;28;20214;-43
2023/08/22 00:30:54;;;;;;;9.95;8.40;;;;;;;23.95;75.86;94978.34;5109683;28;20192;-42
2023/08/22 00:33:21;;;;;;;14.45;8.95;;;;;;;23.48;76.07;94906.56;5109323;28;20228;-43
2023/08/22 00:35:49;;;;;;;9.75;8.85;;;;;;;23.91;76.48;94965.94;5109547;28;20242;-43
2023/08/22 00:38:16;;;;;;;10.25;9.23;;;;;;;23.85;76.52;94965.00;5109657;28;20223;-45
2023/08/22 00:40:43;;;;;;;13.80;9.20;;;;;;;23.85;76.52;94964.19;5109628;28;20197;-44
2023/08/22 00:43:10;;;;;;;9.55;8.50;;;;;;;23.82;76.88;94960.19;5109120;28;20205;-44
2023/08/22 00:45:37;;;;;;;13.57;8.65;;;;;;;23.83;77.03;94971.44;5109503;28;20602;-43
2023/08/22 00:48:04;;;;;;;9.73;7.97;;;;;;;23.81;76.89;94973.47;5109669;28;20288;-44
2023/08/22 00:50:32;;;;;;;9.85;8.95;;;;;;;23.78;77.33;94969.44;5109441;28;20707;-43
2023/08/22 00:53:01;;;;;;;14.27;9.15;;;;;;;23.74;77.66;94976.13;5109274;28;20656;-43
2023/08/22 00:55:28;;;;;;;9.65;8.75;;;;;;;23.72;77.74;94980.75;5109314;28;20568;-43
2023/08/22 00:57:55;;;;;;;10.15;8.90;;;;;;;23.72;77.74;94972.94;5108903;28;20298;-43
2023/08/22 01:00:22;;;;;;;10.07;9.07;;;;;;;23.62;77.91;94968.16;5109573;28;20204;-43
2023/08/22 01:02:48;;;;;;;9.85;8.95;;;;;;;23.64;78.13;94984.41;5109152;28;20567;-43
2023/08/22 01:05:15;;;;;;;12.43;10.13;;;;;;;23.59;78.50;94968.56;5109444;28;20238;-42
2023/08/22 01:07:51;;;;;;;10.88;8.95;;;;;;;23.58;78.52;94969.59;5109422;28;20189;-43
2023/08/22 01:10:24;;;;;;;12.00;8.73;;;;;;;23.56;78.66;94974.19;5109064;28;20195;-43
2023/08/22 01:12:58;;;;;;;10.30;9.25;;;;;;;23.54;78.80;94976.25;5109242;28;20220;-44
2023/08/22 01:15:26;;;;;;;10.82;8.80;;;;;;;23.52;78.80;94979.03;5109335;28;20212;-43
2023/08/22 01:17:54;;;;;;;10.98;9.65;;;;;;;23.49;79.11;94976.88;5108865;28;20241;-43
2023/08/22 01:20:21;;;;;;;11.40;9.30;;;;;;;23.46;79.55;94979.09;5109138;28;20193;-43
2023/08/22 01:22:49;;;;;;;11.35;9.57;;;;;;;23.43;79.63;94980.31;5108878;28;20231;-45
2023/08/22 01:25:16;;;;;;;10.63;9.25;;;;;;;23.40;80.25;94978.13;5109176;28;20212;-43
2023/08/22 01:27:55;;;;;;;12.38;8.88;;;;;;;23.43;80.85;94977.69;5108995;28;20560;-43
2023/08/22 01:30:28;;;;;;;10.68;9.60;;;;;;;23.41;81.02;94984.94;5109407;28;20269;-44
2023/08/22 01:33:03;;;;;;;10.20;9.13;;;;;;;23.13;81.04;94942.75;5108796;28;20714;-44
2023/08/22 01:35:32;;;;;;;10.95;9.35;;;;;;;23.30;81.01;94972.56;5108967;28;20564;-44
2023/08/22 01:38:02;;;;;;;10.77;9.20;;;;;;;23.26;81.16;94968.75;5108681;28;20201;-43
2023/08/22 01:40:30;;;;;;;10.30;9.38;;;;;;;23.27;81.21;94980.78;5110489;28;20231;-43
2023/08/22 01:42:57;;;;;;;10.38;9.38;;;;;;;23.25;81.18;94975.00;5112347;28;20181;-43
2023/08/22 01:45:24;;;;;;;12.45;9.20;;;;;;;23.23;81.31;94974.44;5113014;28;20598;-45
2023/08/22 01:47:50;;;;;;;10.10;9.10;;;;;;;23.21;81.51;94974.63;5112462;28;20192;-43
2023/08/22 01:50:17;;;;;;;10.30;9.25;;;;;;;23.19;81.43;94976.66;5112464;28;20200;-43
2023/08/22 01:52:44;;;;;;;10.23;9.10;;;;;;;23.18;81.37;94979.44;5112738;28;20246;-43
2023/08/22 01:55:14;;;;;;;9.73;8.73;;;;;;;23.14;81.77;94979.06;5112332;28;20193;-42
2023/08/22 01:57:41;;;;;;;9.77;8.77;;;;;;;23.12;81.49;94980.28;5112591;28;20742;-44
2023/08/22 02:00:09;;;;;;;11.63;9.43;;;;;;;22.67;81.64;94915.88;5112326;28;20193;-44
2023/08/22 02:02:36;;;;;;;12.55;9.63;;;;;;;22.92;81.90;94951.69;5113714;28;20338;-44
2023/08/22 02:05:03;;;;;;;15.25;9.45;;;;;;;23.06;82.32;94978.50;5112522;28;20193;-46
2023/08/22 02:07:29;;;;;;;10.20;9.20;;;;;;;22.98;82.60;94969.13;5112479;28;20258;-43
2023/08/22 02:09:56;;;;;;;10.90;8.60;;;;;;;22.95;82.66;94972.94;5111958;28;20672;-44
2023/08/22 02:12:24;;;;;;;12.50;9.88;;;;;;;22.94;82.47;94968.72;5112321;28;20185;-43
2023/08/22 02:14:52;;;;;;;10.57;9.45;;;;;;;22.92;82.74;94969.94;5111952;28;20193;-44
2023/08/22 02:17:19;;;;;;;10.27;9.27;;;;;;;22.89;82.87;94967.72;5111951;28;20226;-46
2023/08/22 02:19:46;;;;;;;15.68;9.48;;;;;;;22.89;82.94;94973.75;5111701;28;20185;-44
2023/08/22 02:22:13;;;;;;;11.10;8.57;;;;;;;22.88;83.04;94976.53;5112121;28;20193;-44
2023/08/22 02:24:40;;;;;;;10.50;9.50;;;;;;;22.89;83.30;94978.97;5111971;28;20189;-42
2023/08/22 02:27:06;;;;;;;13.15;8.95;;;;;;;22.86;83.20;94975.97;5112635;28;20185;-44
2023/08/22 02:29:35;;;;;;;9.77;8.35;;;;;;;22.81;83.55;94976.59;5112073;28;20193;-43
2023/08/22 02:32:02;;;;;;;13.35;10.07;;;;;;;22.72;83.60;94962.19;5111664;28;20242;-43
2023/08/22 02:34:28;;;;;;;11.57;10.23;;;;;;;22.78;83.39;94974.38;5111691;28;20185;-43
2023/08/22 02:36:55;;;;;;;10.25;9.23;;;;;;;22.75;83.84;94973.00;5111261;28;20574;-44
2023/08/22 02:39:22;;;;;;;10.57;9.65;;;;;;;22.71;83.91;94969.19;5111892;28;20217;-44
2023/08/22 02:41:49;;;;;;;10.25;9.25;;;;;;;22.70;84.01;94977.22;5111443;28;20210;-45
2023/08/22 02:44:15;;;;;;;10.02;9.02;;;;;;;22.67;83.99;94977.66;5111478;28;20177;-45
2023/08/22 02:46:44;;;;;;;14.80;9.48;;;;;;;22.66;83.99;94978.63;5111160;28;20196;-42
2023/08/22 02:49:10;;;;;;;12.55;9.48;;;;;;;22.58;84.33;94969.22;5111443;28;20196;-44
2023/08/22 02:51:37;;;;;;;10.68;9.48;;;;;;;22.64;84.29;94991.88;5111224;28;20656;-43
2023/08/22 02:54:04;;;;;;;10.73;9.73;;;;;;;22.60;84.39;94988.06;5111314;28;20212;-44
2023/08/22 02:56:31;;;;;;;11.27;10.13;;;;;;;22.55;84.67;94987.91;5111096;28;20185;-42
2023/08/22 02:58:57;;;;;;;10.82;9.70;;;;;;;22.54;84.43;94988.91;5111509;28;20181;-43
2023/08/22 03:01:24;;;;;;;14.30;10.70;;;;;;;22.50;84.59;94979.91;5111427;28;20181;-42
2023/08/22 03:03:54;;;;;;;12.23;10.32;;;;;;;22.47;85.20;94980.28;5110867;28;20227;-43
2023/08/22 03:06:22;;;;;;;11.27;9.82;;;;;;;22.44;84.87;94984.09;5111552;28;20216;-42
2023/08/22 03:08:49;;;;;;;13.10;10.32;;;;;;;22.28;85.15;94963.69;5110865;28;20189;-46
2023/08/22 03:11:16;;;;;;;10.98;9.98;;;;;;;22.39;85.57;94989.13;5111201;28;20193;-44
2023/08/22 03:13:42;;;;;;;11.55;10.45;;;;;;;22.39;85.72;94994.34;5111065;28;20193;-43
2023/08/22 03:16:09;;;;;;;11.65;10.20;;;;;;;22.37;85.56;94993.75;5110819;28;20185;-43
2023/08/22 03:18:36;;;;;;;15.05;10.50;;;;;;;22.36;85.64;94997.34;5110349;28;20236;-43
2023/08/22 03:21:04;;;;;;;16.88;10.60;;;;;;;22.34;85.96;94988.94;5110740;28;20181;-46
2023/08/22 03:23:31;;;;;;;12.77;10.38;;;;;;;22.34;85.78;94993.34;5110507;28;20558;-45
2023/08/22 03:25:58;;;;;;;12.70;10.30;;;;;;;22.33;86.00;94999.56;5110646;28;20197;-44
2023/08/22 03:28:25;;;;;;;10.98;9.88;;;;;;;22.25;86.13;94990.16;5110695;28;20217;-44
2023/08/22 03:30:56;;;;;;;12.80;9.60;;;;;;;22.29;86.15;95002.56;5110689;28;20193;-43
2023/08/22 03:33:23;;;;;;;12.75;10.13;;;;;;;22.27;86.13;95001.16;5110196;28;20252;-43
2023/08/22 03:35:52;;;;;;;13.63;10.02;;;;;;;22.26;86.45;95002.16;5110516;28;20189;-45
2023/08/22 03:38:20;;;;;;;11.35;10.18;;;;;;;22.25;86.36;95003.19;5110518;28;20208;-42
2023/08/22 03:40:48;;;;;;;12.35;9.57;;;;;;;22.20;86.58;94997.78;5110425;28;20629;-43
2023/08/22 03:43:16;;;;;;;11.10;9.57;;;;;;;22.27;86.43;95001.16;5110879;28;20193;-43
2023/08/22 03:45:42;;;;;;;12.15;9.93;;;;;;;22.29;86.69;95007.78;5110032;28;20193;-44
2023/08/22 03:48:09;;;;;;;15.02;10.68;;;;;;;22.28;86.60;95006.19;5110194;28;20637;-43
2023/08/22 03:50:36;;;;;;;10.90;9.57;;;;;;;22.26;86.52;95010.78;5110163;28;20653;-44
2023/08/22 03:53:03;;;;;;;13.00;10.07;;;;;;;22.25;86.42;95003.19;5111687;28;20188;-44
2023/08/22 03:55:31;;;;;;;12.00;10.80;;;;;;;22.11;86.73;94989.34;5111324;28;20197;-43
2023/08/22 03:57:58;;;;;;;15.77;9.27;;;;;;;22.24;86.69;95007.59;5110109;28;20295;-43
2023/08/22 04:00:25;;;;;;;14.63;9.77;;;;;;;22.27;86.53;95003.78;5109784;28;20220;-44
2023/08/22 04:02:55;;;;;;;11.77;10.60;;;;;;;22.34;86.62;95001.97;5109937;28;20193;-43
2023/08/22 04:05:22;;;;;;;14.55;10.15;;;;;;;22.36;86.65;94999.94;5110271;28;20269;-43
2023/08/22 04:07:48;;;;;;;12.73;10.32;;;;;;;22.24;86.67;94997.19;5110041;28;20228;-43
2023/08/22 04:10:15;;;;;;;17.23;10.38;;;;;;;22.33;86.59;95002.19;5109684;28;20254;-43
2023/08/22 04:12:43;;;;;;;15.23;10.35;;;;;;;22.33;86.64;95012.59;5109803;28;20185;-44
2023/08/22 04:15:11;;;;;;;15.38;10.55;;;;;;;22.31;86.43;95006.78;5109651;28;20185;-43
2023/08/22 04:17:41;;;;;;;13.27;9.52;;;;;;;22.34;86.23;95006.38;5109819;28;20225;-43
2023/08/22 04:20:09;;;;;;;10.90;9.90;;;;;;;22.39;86.00;95009.19;5110015;28;20188;-43
2023/08/22 04:22:36;;;;;;;11.18;10.05;;;;;;;22.47;86.07;95006.34;5109635;28;20687;-43
2023/08/22 04:25:04;;;;;;;17.80;10.38;;;;;;;22.50;86.13;95014.56;5109729;28;20729;-43
2023/08/22 04:27:31;;;;;;;12.98;10.15;;;;;;;22.50;86.08;95011.16;5109205;28;20246;-44
2023/08/22 04:30:00;;;;;;;12.35;9.93;;;;;;;22.52;85.64;95020.38;5109626;28;20189;-42
2023/08/22 04:32:26;;;;;;;13.57;10.43;;;;;;;22.56;85.63;95017.38;5109097;28;20225;-43
2023/08/22 04:34:53;;;;;;;12.77;10.57;;;;;;;22.62;85.43;95014.72;5110164;28;20246;-44
2023/08/22 04:37:20;;;;;;;17.27;10.85;;;;;;;22.74;85.29;95020.13;5109604;28;20220;-44
2023/08/22 04:39:47;;;;;;;13.48;9.95;;;;;;;22.89;84.58;95028.53;5109536;28;20192;-45
2023/08/22 04:42:14;;;;;;;12.85;11.00;;;;;;;23.07;84.03;95027.88;5109623;28;20181;-42
2023/08/22 04:44:41;;;;;;;13.55;11.55;;;;;;;23.25;83.28;95043.66;5109932;28;20595;-44
2023/08/22 04:47:09;;;;;;;13.05;11.20;;;;;;;23.39;82.35;95043.59;5109510;28;20196;-44
2023/08/22 04:49:36;;;;;;;16.23;10.88;;;;;;;23.51;81.86;95039.31;5109641;28;20185;-44
2023/08/22 04:52:03;;;;;;;13.10;11.25;;;;;;;23.65;81.41;95027.00;5109391;28;20208;-43
2023/08/22 04:54:29;;;;;;;13.55;11.90;;;;;;;23.93;80.03;95043.09;5109640;28;20640;-44
2023/08/22 04:56:56;;;;;;;12.70;11.38;;;;;;;24.08;79.61;95049.81;5109143;28;20234;-43
2023/08/22 04:59:23;;;;;;;18.88;12.40;;;;;;;24.23;78.98;95043.28;5109731;28;20284;-44
2023/08/22 05:01:50;;;;;;;18.63;11.23;;;;;;;24.48;78.04;95055.53;5109769;28;20258;-44
2023/08/22 05:04:18;;;;;;;14.65;12.80;;;;;;;24.65;77.32;95055.78;5109104;28;20644;-44
2023/08/22 05:06:45;;;;;;;13.55;11.98;;;;;;;24.71;76.90;95060.19;5109799;28;20226;-43
2023/08/22 05:09:14;;;;;;;14.38;11.85;;;;;;;24.76;76.35;95053.28;5109663;28;20677;-44
2023/08/22 05:11:41;;;;;;;19.02;12.80;;;;;;;24.80;76.19;95042.38;5109813;28;20181;-43
2023/08/22 05:14:09;;;;;;;14.88;11.60;;;;;;;24.86;75.69;95054.56;5109546;28;20606;-45
2023/08/22 05:16:35;;;;;;;16.73;11.80;;;;;;;24.99;75.06;95044.75;5112712;28;20253;-44
2023/08/22 05:19:03;;;;;;;18.20;12.18;;;;;;;25.19;75.10;95044.56;5112975;28;20228;-43
2023/08/22 05:21:31;;;;;;;16.17;12.00;;;;;;;25.33;74.37;95044.41;5113614;28;20185;-43
2023/08/22 05:23:58;;;;;;;14.50;11.32;;;;;;;25.61;73.64;95046.47;5113371;28;20191;-44
2023/08/22 05:26:25;;;;;;;19.58;12.55;;;;;;;25.67;72.61;95027.22;5113135;28;20193;-43
2023/08/22 05:28:52;;;;;;;15.90;12.50;;;;;;;26.00;71.28;95053.78;5113125;28;20656;-44
2023/08/22 05:31:22;;;;;;;12.00;10.80;;;;;;;26.09;71.00;95035.13;5113184;28;20189;-45
2023/08/22 05:33:49;;;;;;;13.77;12.05;;;;;;;26.45;69.28;95044.63;5112470;28;20221;-44
2023/08/22 05:36:16;;;;;;;14.30;12.07;;;;;;;26.49;68.85;95049.19;5113381;28;20193;-44
2023/08/22 05:38:44;;;;;;;19.35;12.85;;;;;;;26.50;68.29;95056.03;5113117;28;20860;-43
2023/08/22 05:41:11;;;;;;;13.25;11.93;;;;;;;26.56;68.10;95056.16;5112594;28;20192;-45
2023/08/22 05:43:38;;;;;;;14.07;12.68;;;;;;;26.63;67.38;95049.75;5113264;28;20181;-44
2023/08/22 05:46:04;;;;;;;13.77;12.32;;;;;;;26.64;67.46;95042.69;5114189;28;20185;-45
2023/08/22 05:48:31;;;;;;;14.55;12.75;;;;;;;26.81;67.36;95051.44;5113333;28;20197;-43
2023/08/22 05:50:58;;;;;;;14.57;12.18;;;;;;;27.12;66.12;95050.31;5112741;28;20182;-44
2023/08/22 05:53:25;;;;;;;15.18;12.20;;;;;;;27.29;65.10;95026.75;5112911;28;20193;-43
2023/08/22 05:55:55;;;;;;;13.75;12.23;;;;;;;27.53;64.50;95024.81;5112418;28;20193;-44
2023/08/22 05:58:21;;;;;;;17.83;11.95;;;;;;;27.91;63.31;95047.84;5112622;28;20277;-44
2023/08/22 06:00:49;;;;;;;11.13;10.02;;;;;;;28.27;62.75;95051.06;5112192;28;20185;-42
2023/08/22 06:03:17;;;;;;;14.20;11.23;;;;;;;28.57;60.79;95037.59;5113125;28;20200;-45
2023/08/22 06:05:44;;;;;;;14.77;11.55;;;;;;;28.69;60.57;95043.56;5112462;28;20782;-44
2023/08/22 06:08:12;;;;;;;10.80;9.70;;;;;;;28.89;60.08;95034.34;5112469;28;20221;-44
2023/08/22 06:10:39;;;;;;;13.77;10.55;;;;;;;29.22;59.42;95039.50;5112098;28;20741;-45
2023/08/22 06:13:07;;;;;;;12.23;10.57;;;;;;;29.56;58.54;95047.31;5112874;28;20193;-45
2023/08/22 06:15:34;;;;;;;12.93;11.15;;;;;;;29.91;57.46;95048.69;5112672;28;20189;-43
2023/08/22 06:18:01;;;;;;;13.85;10.57;;;;;;;30.22;56.54;95044.50;5112205;28;20225;-43
2023/08/22 06:20:28;;;;;;;21.38;10.38;;;;;;;30.54;55.15;95046.31;5112646;28;20185;-44
2023/08/22 06:22:54;;;;;;;15.50;10.75;;;;;;;30.82;54.12;95039.91;5112541;28;20189;-43
2023/08/22 06:25:21;;;;;;;12.02;9.85;;;;;;;30.81;53.74;95044.41;5112332;28;20196;-44
2023/08/22 06:27:48;;;;;;;14.50;10.55;;;;;;;30.68;54.50;95042.19;5111883;28;20185;-46
2023/08/22 06:30:16;;;;;;;12.90;10.43;;;;;;;30.50;54.54;95048.69;5111992;28;20189;-44
2023/08/22 06:32:43;;;;;;;12.55;9.80;;;;;;;30.25;54.75;95030.81;5111669;28;20323;-43
2023/08/22 06:35:10;;;;;;;14.13;10.57;;;;;;;30.18;55.65;95046.03;5112159;28;20212;-43
2023/08/22 06:37:36;;;;;;;11.80;10.13;;;;;;;30.31;55.13;95037.72;5112012;28;20205;-43
2023/08/22 06:40:05;;;;;;;13.30;11.80;;;;;;;30.38;54.88;95042.78;5111936;28;20855;-44
2023/08/22 06:42:32;;;;;;;16.60;10.05;;;;;;;30.44;54.90;95044.38;5111742;28;20284;-45
2023/08/22 06:44:59;;;;;;;14.57;10.45;;;;;;;30.42;54.42;95049.94;5112140;28;20199;-44
2023/08/22 06:47:27;;;;;;;12.77;9.80;;;;;;;30.34;54.57;95052.25;5111712;28;20189;-44
2023/08/22 06:49:54;;;;;;;14.52;9.77;;;;;;;30.43;54.46;95051.53;5112139;28;20192;-44
2023/08/22 06:52:21;;;;;;;14.55;10.65;;;;;;;30.35;54.63;95046.72;5111830;28;20196;-43
2023/08/22 06:54:47;;;;;;;11.95;9.73;;;;;;;30.35;54.73;95045.91;5111412;28;20193;-44
2023/08/22 06:57:14;;;;;;;11.13;10.02;;;;;;;30.51;54.60;95044.97;5112009;28;20242;-44
2023/08/22 06:59:41;;;;;;;19.50;11.38;;;;;;;30.76;53.82;95046.22;5111715;28;20216;-45
2023/08/22 07:02:08;;;;;;;13.93;11.77;;;;;;;30.87;53.64;95042.56;5111639;28;20196;-42
2023/08/22 07:04:36;;;;;;;13.90;10.73;;;;;;;30.93;53.74;95046.84;5111327;28;20636;-44
2023/08/22 07:07:03;;;;;;;14.93;11.38;;;;;;;31.06;53.50;95037.66;5111392;28;20189;-45
2023/08/22 07:09:29;;;;;;;17.02;11.73;;;;;;;31.07;52.80;95047.16;5111016;28;20657;-43
2023/08/22 07:11:56;;;;;;;12.20;10.85;;;;;;;30.94;53.15;95036.00;5111304;28;20193;-44
2023/08/22 07:14:23;;;;;;;13.50;11.20;;;;;;;31.09;53.21;95031.84;5111034;28;20188;-41
2023/08/22 07:16:50;;;;;;;21.05;10.73;;;;;;;31.19;52.39;95034.53;5111338;28;20207;-46
2023/08/22 07:19:17;;;;;;;15.13;10.35;;;;;;;31.28;51.88;95025.09;5111162;28;20216;-43
2023/08/22 07:21:47;;;;;;;14.50;9.73;;;;;;;31.32;51.70;95030.66;5111098;28;20649;-44
2023/08/22 07:24:14;;;;;;;13.50;10.00;;;;;;;31.46;51.36;95031.75;5110930;28;20189;-44
2023/08/22 07:26:41;;;;;;;11.43;10.18;;;;;;;31.54;51.53;95027.81;5110946;28;20185;-44
2023/08/22 07:29:08;;;;;;;14.20;9.75;;;;;;;31.69;51.43;95017.25;5111240;28;20250;-46
2023/08/22 07:31:35;;;;;;;14.30;9.50;;;;;;;32.12;50.47;95026.56;5110945;28;20226;-44
2023/08/22 07:34:01;;;;;;;14.75;9.75;;;;;;;32.53;49.35;95026.56;5110786;28;20769;-44
2023/08/22 07:36:28;;;;;;;12.85;9.70;;;;;;;32.83;48.44;95024.94;5111663;28;20242;-44
2023/08/22 07:38:58;;;;;;;11.55;9.07;;;;;;;33.05;47.74;95024.63;5110740;28;20212;-44
2023/08/22 07:41:24;;;;;;;15.25;10.07;;;;;;;33.24;46.75;95022.94;5110619;28;20568;-43
2023/08/22 07:43:51;;;;;;;15.60;9.70;;;;;;;33.02;47.24;95031.25;5110753;28;20219;-43
2023/08/22 07:46:19;;;;;;;15.07;10.48;;;;;;;32.84;48.11;95026.50;5110883;28;20185;-47
2023/08/22 07:48:46;;;;;;;16.95;9.35;;;;;;;33.04;47.85;95025.69;5110486;28;20224;-43
2023/08/22 07:51:13;;;;;;;12.68;10.10;;;;;;;33.09;47.11;95029.09;5110293;28;20189;-43
2023/08/22 07:53:39;;;;;;;14.23;9.23;;;;;;;33.02;46.92;95030.44;5110572;28;20189;-45
2023/08/22 07:56:08;;;;;;;15.98;9.10;;;;;;;33.03;46.92;95024.88;5110393;28;20610;-44
2023/08/22 07:58:34;;;;;;;12.63;8.57;;;;;;;33.04;46.75;95031.00;5110620;28;20652;-45
2023/08/22 08:01:04;;;;;;;9.95;8.95;;;;;;;33.25;46.63;95034.31;5110432;28;20192;-43
2023/08/22 08:03:31;;;;;;;10.43;8.07;;;;;;;33.35;45.85;95021.03;5110478;28;20185;-44
2023/08/22 08:05:59;;;;;;;10.23;8.15;;;;;;;33.51;45.03;95024.41;5110312;28;20199;-43
2023/08/22 08:08:25;;;;;;;10.48;9.02;;;;;;;33.73;45.20;95027.50;5110125;28;20205;-43
2023/08/22 08:10:52;;;;;;;9.43;8.43;;;;;;;33.95;44.86;95019.91;5110620;28;20618;-44
2023/08/22 08:13:20;;;;;;;12.35;9.30;;;;;;;34.10;44.43;95032.28;5110062;28;20242;-45
2023/08/22 08:15:47;;;;;;;15.35;8.38;;;;;;;34.26;43.45;95029.50;5110602;28;20185;-44
2023/08/22 08:18:15;;;;;;;9.55;8.27;;;;;;;34.37;43.31;95028.34;5109878;28;20193;-43
2023/08/22 08:20:42;;;;;;;11.88;8.30;;;;;;;34.50;42.79;95019.78;5110137;28;20185;-46
2023/08/22 08:23:09;;;;;;;9.57;8.20;;;;;;;34.69;42.57;95025.16;5109851;28;20185;-45
2023/08/22 08:25:36;;;;;;;15.32;9.20;;;;;;;34.82;42.43;95019.16;5110077;28;20710;-45
2023/08/22 08:28:04;;;;;;;13.68;8.45;;;;;;;34.85;42.55;95023.91;5109987;28;20192;-45
2023/08/22 08:30:32;;;;;;;11.65;7.97;;;;;;;35.04;41.96;95020.53;5110101;28;20656;-45
2023/08/22 08:32:59;;;;;;;11.88;7.93;;;;;;;35.12;41.30;95022.56;5109925;28;20221;-44
2023/08/22 08:35:26;;;;;;;8.40;7.50;;;;;;;35.20;41.08;95024.63;5110152;28;20185;-44
2023/08/22 08:37:53;;;;;;;13.15;8.23;;;;;;;35.26;40.46;95020.00;5109690;28;20185;-44
2023/08/22 08:40:20;;;;;;;13.95;8.23;;;;;;;35.27;40.46;95019.72;5109916;28;20216;-44
2023/08/22 08:42:47;;;;;;;8.40;7.55;;;;;;;35.42;39.90;95016.09;5110006;28;20228;-44
2023/08/22 08:45:15;;;;;;;8.25;7.32;;;;;;;35.55;39.66;95022.59;5109483;28;20653;-44
2023/08/22 08:47:44;;;;;;;14.65;7.88;;;;;;;35.61;39.54;95014.22;5109998;28;20321;-44
2023/08/22 08:50:11;;;;;;;13.57;8.15;;;;;;;35.59;39.42;95013.75;5112471;28;20185;-43
2023/08/22 08:52:38;;;;;;;12.52;7.78;;;;;;;35.43;39.85;95009.69;5114045;28;20196;-42
2023/08/22 08:55:06;;;;;;;7.88;7.07;;;;;;;35.14;40.08;94999.13;5113703;28;20660;-44
2023/08/22 08:57:33;;;;;;;8.60;7.72;;;;;;;35.24;39.23;95014.19;5114055;28;20201;-45
2023/08/22 09:00:02;;;;;;;11.98;6.82;;;;;;;35.29;39.38;95008.81;5113706;28;20252;-45
2023/08/22 09:02:31;;;;;;;14.30;7.20;;;;;;;35.36;39.07;95002.03;5113951;28;20200;-44
2023/08/22 09:04:59;;;;;;;9.73;7.65;;;;;;;35.09;39.27;94956.66;5113600;28;20664;-45
2023/08/22 09:07:26;;;;;;;7.80;6.72;;;;;;;35.49;38.35;95000.56;5114108;28;20177;-45
2023/08/22 09:09:53;;;;;;;7.65;6.80;;;;;;;35.49;38.54;95003.22;5113909;28;20253;-43
2023/08/22 09:12:20;;;;;;;8.38;5.82;;;;;;;35.48;37.11;95004.31;5113679;28;20586;-43
2023/08/22 09:14:48;;;;;;;10.80;6.03;;;;;;;35.40;37.22;95000.38;5113485;28;20283;-45
2023/08/22 09:17:15;;;;;;;10.88;6.10;;;;;;;35.40;36.91;95000.38;5113674;28;20185;-44
2023/08/22 09:19:42;;;;;;;9.68;5.38;;;;;;;35.30;36.35;94981.91;5113124;28;20311;-44
2023/08/22 09:22:13;;;;;;;5.95;5.35;;;;;;;35.49;36.05;94999.78;5113358;28;20625;-44
2023/08/22 09:24:51;;;;;;;9.18;5.47;;;;;;;35.51;36.05;94990.44;5113649;28;20652;-44
2023/08/22 09:27:21;;;;;;;10.90;6.25;;;;;;;35.55;36.67;94993.31;5114619;28;20291;-44
2023/08/22 09:29:48;;;;;;;7.20;6.50;;;;;;;35.59;36.65;94989.78;5113614;28;20553;-45
2023/08/22 09:32:14;;;;;;;7.03;5.38;;;;;;;35.57;36.02;94991.16;5113085;28;20192;-44
2023/08/22 09:34:53;;;;;;;7.55;6.05;;;;;;;35.55;35.72;94986.13;5113349;28;20254;-45
2023/08/22 09:37:31;;;;;;;8.32;5.85;;;;;;;35.38;35.58;94965.31;5113499;28;20571;-45
2023/08/22 09:39:58;;;;;;;6.82;6.13;;;;;;;35.43;35.62;94983.84;5112911;28;20251;-45
2023/08/22 09:42:28;;;;;;;6.28;5.68;;;;;;;35.37;35.77;94978.91;5113477;28;20540;-45
2023/08/22 09:44:56;;;;;;;6.60;5.97;;;;;;;35.40;35.98;94979.09;5113025;28;20185;-44
2023/08/22 09:47:26;;;;;;;7.85;5.68;;;;;;;35.33;35.89;94965.38;5113133;28;20192;-46
2023/08/22 09:49:59;;;;;;;11.00;5.43;;;;;;;35.36;34.83;94972.78;5113016;28;20275;-45
2023/08/22 09:52:26;;;;;;;5.82;5.20;;;;;;;35.28;34.72;94962.00;5113066;28;20197;-46
2023/08/22 09:54:56;;;;;;;6.60;5.43;;;;;;;35.24;34.92;94958.34;5112696;28;20192;-44
2023/08/22 09:57:24;;;;;;;5.70;4.90;;;;;;;35.22;34.51;94955.16;5112849;28;20361;-44
2023/08/22 09:59:51;;;;;;;7.68;4.65;;;;;;;35.11;33.25;94960.63;5112494;28;20315;-45
2023/08/22 10:02:20;;;;;;;6.72;4.50;;;;;;;35.08;32.88;94955.88;5112052;28;20193;-44
2023/08/22 10:04:47;;;;;;;7.28;5.30;;;;;;;34.97;33.57;94956.25;5112712;28;20663;-43
2023/08/22 10:07:16;;;;;;;8.73;4.97;;;;;;;34.97;33.65;94950.94;5112673;28;20591;-44
2023/08/22 10:09:44;;;;;;;10.98;5.55;;;;;;;34.95;33.82;94945.91;5113020;28;20184;-44
2023/08/22 10:12:15;;;;;;;6.20;4.93;;;;;;;34.86;34.09;94943.09;5112549;28;20188;-44
2023/08/22 10:14:45;;;;;;;7.32;5.30;;;;;;;34.91;34.14;94951.00;5112779;28;20188;-44
2023/08/22 10:17:13;;;;;;;5.35;4.85;;;;;;;34.85;34.38;94935.44;5112181;28;20656;-44
2023/08/22 10:19:42;;;;;;;6.88;5.30;;;;;;;34.84;34.66;94947.09;5112645;28;20299;-44
2023/08/22 10:22:11;;;;;;;5.38;4.88;;;;;;;34.85;34.81;94951.38;5112137;28;20233;-45
2023/08/22 10:24:39;;;;;;;9.60;4.93;;;;;;;34.83;34.43;94941.00;5112260;28;20200;-46
2023/08/22 10:27:09;;;;;;;8.23;5.45;;;;;;;34.75;34.07;94938.97;5112043;28;20197;-44
2023/08/22 10:29:38;;;;;;;10.30;5.38;;;;;;;34.69;33.85;94930.28;5112455;28;20204;-43
2023/08/22 10:32:20;;;;;;;11.43;6.63;;;;;;;34.62;34.29;94921.06;5111757;28;20197;-44
2023/08/22 10:35:20;;;;;;;9.40;5.70;;;;;;;34.19;34.57;94883.78;5112292;28;20211;-44
2023/08/22 10:37:49;;;;;;;6.25;4.80;;;;;;;34.51;34.52;94936.34;5112300;28;20189;-44
2023/08/22 10:40:28;;;;;;;9.00;5.05;;;;;;;34.32;34.30;94917.63;5111878;28;20711;-43
2023/08/22 10:43:12;;;;;;;10.10;5.72;;;;;;;34.35;34.47;94930.34;5112511;28;20216;-44
2023/08/22 10:45:51;;;;;;;5.90;5.40;;;;;;;34.41;34.23;94923.13;5111613;28;20254;-44
2023/08/22 10:48:19;;;;;;;5.50;5.00;;;;;;;34.14;34.63;94892.59;5111964;28;20204;-44
2023/08/22 10:50:47;;;;;;;8.57;5.35;;;;;;;34.24;34.36;94917.47;5111843;28;20653;-43
2023/08/22 10:53:20;;;;;;;8.30;4.80;;;;;;;34.33;34.89;94921.91;5111733;28;20203;-44
2023/08/22 10:55:47;;;;;;;8.15;5.10;;;;;;;34.53;34.39;94914.78;5111636;28;20542;-43
2023/08/22 10:58:36;;;;;;;5.30;4.80;;;;;;;34.47;34.33;94918.56;5111579;28;20217;-43
2023/08/22 11:01:06;;;;;;;5.43;4.80;;;;;;;34.32;34.48;94920.28;5111818;28;20217;-44
2023/08/22 11:03:34;;;;;;;9.32;5.43;;;;;;;34.33;34.58;94919.25;5111317;28;20189;-45
2023/08/22 11:06:00;;;;;;;5.88;5.05;;;;;;;34.47;34.89;94923.88;5111655;28;20185;-43
2023/08/22 11:08:27;;;;;;;7.72;5.53;;;;;;;34.50;34.13;94913.50;5111379;28;20200;-44
2023/08/22 11:10:54;;;;;;;5.85;5.28;;;;;;;34.45;34.73;94916.97;5111321;28;20208;-44
2023/08/22 11:13:21;;;;;;;9.07;5.85;;;;;;;34.43;34.99;94919.13;5110580;28;20215;-43
2023/08/22 11:15:51;;;;;;;6.13;5.07;;;;;;;34.41;35.06;94921.28;5112605;28;20250;-44
2023/08/22 11:18:19;;;;;;;6.45;5.35;;;;;;;34.50;35.12;94912.69;5111225;28;20648;-44
2023/08/22 11:20:55;;;;;;;8.32;6.07;;;;;;;34.59;35.39;94911.03;5110977;28;20220;-44
2023/08/22 11:23:22;;;;;;;6.18;5.53;;;;;;;34.64;35.31;94908.31;5110875;28;20675;-44
2023/08/22 11:25:49;;;;;;;6.85;5.80;;;;;;;34.76;35.22;94903.38;5111175;28;20185;-44
2023/08/22 11:28:15;;;;;;;11.45;5.13;;;;;;;34.83;35.31;94910.97;5111364;28;20251;-44